sensor_id;sensor_type;location;lat;lon;timestamp;P1;durP1;ratioP1;P2;durP2;ratioP2
35835;SDS011;21955;50.580;7.228;2022-12-07T00:00:08;22.23;;;12.30;;
35835;SDS011;21955;50.580;7.228;2022-12-07T00:02:36;22.52;;;12.23;;
35835;SDS011;21955;50.580;7.228;2022-12-07T00:05:03;23.08;;;12.45;;
35835;SDS011;21955;50.580;7.228;2022-12-07T00:07:30;24.77;;;12.75;;
35835;SDS011;21955;50.580;7.228;2022-12-07T00:09:57;25.40;;;13.10;;
35835;SDS011;21955;50.580;7.228;2022-12-07T00:12:26;23.77;;;12.70;;
35835;SDS011;21955;50.580;7.228;2022-12-07T00:14:53;24.08;;;12.50;;
35835;SDS011;21955;50.580;7.228;2022-12-07T00:17:20;25.58;;;12.55;;
35835;SDS011;21955;50.580;7.228;2022-12-07T00:19:47;22.27;;;12.05;;
35835;SDS011;21955;50.580;7.228;2022-12-07T00:22:14;23.52;;;12.00;;
35835;SDS011;21955;50.580;7.228;2022-12-07T00:24:42;23.50;;;12.18;;
35835;SDS011;21955;50.580;7.228;2022-12-07T00:27:09;23.50;;;12.48;;
35835;SDS011;21955;50.580;7.228;2022-12-07T00:29:37;23.65;;;12.05;;
35835;SDS011;21955;50.580;7.228;2022-12-07T00:32:04;23.40;;;12.27;;
35835;SDS011;21955;50.580;7.228;2022-12-07T00:34:31;21.23;;;11.70;;
35835;SDS011;21955;50.580;7.228;2022-12-07T00:36:59;24.90;;;12.02;;
35835;SDS011;21955;50.580;7.228;2022-12-07T00:39:26;22.83;;;11.73;;
35835;SDS011;21955;50.580;7.228;2022-12-07T00:41:53;23.42;;;12.05;;
35835;SDS011;21955;50.580;7.228;2022-12-07T00:44:20;21.65;;;11.88;;
35835;SDS011;21955;50.580;7.228;2022-12-07T00:46:49;21.88;;;11.43;;
35835;SDS011;21955;50.580;7.228;2022-12-07T00:49:16;21.50;;;11.82;;
35835;SDS011;21955;50.580;7.228;2022-12-07T00:51:43;23.63;;;12.15;;
35835;SDS011;21955;50.580;7.228;2022-12-07T00:54:10;22.90;;;12.07;;
35835;SDS011;21955;50.580;7.228;2022-12-07T00:56:37;22.17;;;11.75;;
35835;SDS011;21955;50.580;7.228;2022-12-07T00:59:05;25.02;;;12.27;;
35835;SDS011;21955;50.580;7.228;2022-12-07T01:01:34;23.65;;;11.90;;
35835;SDS011;21955;50.580;7.228;2022-12-07T01:04:03;21.55;;;11.52;;
35835;SDS011;21955;50.580;7.228;2022-12-07T01:06:30;23.15;;;11.73;;
35835;SDS011;21955;50.580;7.228;2022-12-07T01:08:57;20.95;;;11.55;;
35835;SDS011;21955;50.580;7.228;2022-12-07T01:11:26;21.17;;;11.55;;
35835;SDS011;21955;50.580;7.228;2022-12-07T01:13:54;20.23;;;11.32;;
35835;SDS011;21955;50.580;7.228;2022-12-07T01:16:22;21.90;;;12.43;;
35835;SDS011;21955;50.580;7.228;2022-12-07T01:18:51;20.67;;;11.50;;
35835;SDS011;21955;50.580;7.228;2022-12-07T01:21:20;20.08;;;11.63;;
35835;SDS011;21955;50.580;7.228;2022-12-07T01:23:47;22.02;;;11.63;;
35835;SDS011;21955;50.580;7.228;2022-12-07T01:26:15;20.50;;;11.18;;
35835;SDS011;21955;50.580;7.228;2022-12-07T01:28:43;22.40;;;11.40;;
35835;SDS011;21955;50.580;7.228;2022-12-07T01:31:11;22.40;;;11.53;;
35835;SDS011;21955;50.580;7.228;2022-12-07T01:33:40;21.50;;;11.38;;
35835;SDS011;21955;50.580;7.228;2022-12-07T01:36:08;22.38;;;11.55;;
35835;SDS011;21955;50.580;7.228;2022-12-07T01:38:41;21.13;;;11.38;;
35835;SDS011;21955;50.580;7.228;2022-12-07T01:41:08;20.17;;;11.00;;
35835;SDS011;21955;50.580;7.228;2022-12-07T01:43:35;22.80;;;12.00;;
35835;SDS011;21955;50.580;7.228;2022-12-07T01:46:02;22.25;;;11.07;;
35835;SDS011;21955;50.580;7.228;2022-12-07T01:48:31;20.52;;;11.57;;
35835;SDS011;21955;50.580;7.228;2022-12-07T01:51:00;20.15;;;11.38;;
35835;SDS011;21955;50.580;7.228;2022-12-07T01:53:28;21.33;;;11.57;;
35835;SDS011;21955;50.580;7.228;2022-12-07T01:55:57;22.90;;;11.82;;
35835;SDS011;21955;50.580;7.228;2022-12-07T01:58:25;21.70;;;11.55;;
35835;SDS011;21955;50.580;7.228;2022-12-07T02:00:52;21.27;;;11.52;;
35835;SDS011;21955;50.580;7.228;2022-12-07T02:03:22;20.33;;;11.38;;
35835;SDS011;21955;50.580;7.228;2022-12-07T02:05:50;20.20;;;11.23;;
35835;SDS011;21955;50.580;7.228;2022-12-07T02:08:18;19.77;;;10.63;;
35835;SDS011;21955;50.580;7.228;2022-12-07T02:10:45;22.20;;;11.40;;
35835;SDS011;21955;50.580;7.228;2022-12-07T02:13:14;20.65;;;10.90;;
35835;SDS011;21955;50.580;7.228;2022-12-07T02:15:49;20.33;;;10.98;;
35835;SDS011;21955;50.580;7.228;2022-12-07T02:18:20;19.43;;;10.40;;
35835;SDS011;21955;50.580;7.228;2022-12-07T02:20:52;19.47;;;10.37;;
35835;SDS011;21955;50.580;7.228;2022-12-07T02:23:31;19.02;;;9.90;;
35835;SDS011;21955;50.580;7.228;2022-12-07T02:26:13;18.42;;;10.20;;
35835;SDS011;21955;50.580;7.228;2022-12-07T02:29:06;19.40;;;10.48;;
35835;SDS011;21955;50.580;7.228;2022-12-07T02:31:36;16.08;;;9.48;;
35835;SDS011;21955;50.580;7.228;2022-12-07T02:34:05;19.95;;;9.93;;
35835;SDS011;21955;50.580;7.228;2022-12-07T02:36:35;19.23;;;10.00;;
35835;SDS011;21955;50.580;7.228;2022-12-07T02:39:06;19.00;;;10.80;;
35835;SDS011;21955;50.580;7.228;2022-12-07T02:41:37;50.22;;;18.02;;
35835;SDS011;21955;50.580;7.228;2022-12-07T02:44:08;56.97;;;19.40;;
35835;SDS011;21955;50.580;7.228;2022-12-07T02:46:38;54.70;;;18.95;;
35835;SDS011;21955;50.580;7.228;2022-12-07T02:49:07;60.38;;;18.77;;
35835;SDS011;21955;50.580;7.228;2022-12-07T02:51:38;46.10;;;16.90;;
35835;SDS011;21955;50.580;7.228;2022-12-07T02:54:08;38.22;;;15.05;;
35835;SDS011;21955;50.580;7.228;2022-12-07T02:56:37;29.92;;;12.73;;
35835;SDS011;21955;50.580;7.228;2022-12-07T02:59:08;20.30;;;10.53;;
35835;SDS011;21955;50.580;7.228;2022-12-07T03:01:40;17.67;;;9.80;;
35835;SDS011;21955;50.580;7.228;2022-12-07T03:04:11;17.02;;;9.40;;
35835;SDS011;21955;50.580;7.228;2022-12-07T03:06:42;16.25;;;9.32;;
35835;SDS011;21955;50.580;7.228;2022-12-07T03:09:11;15.75;;;9.27;;
35835;SDS011;21955;50.580;7.228;2022-12-07T03:11:42;16.25;;;8.95;;
35835;SDS011;21955;50.580;7.228;2022-12-07T03:14:11;15.80;;;9.38;;
35835;SDS011;21955;50.580;7.228;2022-12-07T03:16:42;15.00;;;9.00;;
35835;SDS011;21955;50.580;7.228;2022-12-07T03:19:11;17.10;;;9.40;;
35835;SDS011;21955;50.580;7.228;2022-12-07T03:21:40;15.90;;;8.82;;
35835;SDS011;21955;50.580;7.228;2022-12-07T03:24:08;14.88;;;8.98;;
35835;SDS011;21955;50.580;7.228;2022-12-07T03:26:40;15.40;;;8.90;;
35835;SDS011;21955;50.580;7.228;2022-12-07T03:29:09;13.27;;;8.57;;
35835;SDS011;21955;50.580;7.228;2022-12-07T03:31:39;15.27;;;8.80;;
35835;SDS011;21955;50.580;7.228;2022-12-07T03:34:10;16.00;;;9.05;;
35835;SDS011;21955;50.580;7.228;2022-12-07T03:36:38;15.75;;;9.32;;
35835;SDS011;21955;50.580;7.228;2022-12-07T03:39:08;15.45;;;9.50;;
35835;SDS011;21955;50.580;7.228;2022-12-07T03:41:39;17.20;;;9.75;;
35835;SDS011;21955;50.580;7.228;2022-12-07T03:44:06;15.90;;;9.50;;
35835;SDS011;21955;50.580;7.228;2022-12-07T03:46:35;17.92;;;10.25;;
35835;SDS011;21955;50.580;7.228;2022-12-07T03:49:05;17.13;;;9.55;;
35835;SDS011;21955;50.580;7.228;2022-12-07T03:51:36;17.25;;;9.75;;
35835;SDS011;21955;50.580;7.228;2022-12-07T03:54:07;17.00;;;9.98;;
35835;SDS011;21955;50.580;7.228;2022-12-07T03:56:36;17.48;;;10.02;;
35835;SDS011;21955;50.580;7.228;2022-12-07T03:59:03;18.52;;;10.20;;
35835;SDS011;21955;50.580;7.228;2022-12-07T04:01:31;17.33;;;10.02;;
35835;SDS011;21955;50.580;7.228;2022-12-07T04:03:58;17.80;;;9.77;;
35835;SDS011;21955;50.580;7.228;2022-12-07T04:06:25;17.48;;;9.95;;
35835;SDS011;21955;50.580;7.228;2022-12-07T04:08:53;16.80;;;10.00;;
35835;SDS011;21955;50.580;7.228;2022-12-07T04:11:20;15.82;;;9.90;;
35835;SDS011;21955;50.580;7.228;2022-12-07T04:13:49;17.45;;;10.32;;
35835;SDS011;21955;50.580;7.228;2022-12-07T04:16:33;18.65;;;10.32;;
35835;SDS011;21955;50.580;7.228;2022-12-07T04:19:01;17.50;;;10.63;;
35835;SDS011;21955;50.580;7.228;2022-12-07T04:21:28;19.17;;;11.00;;
35835;SDS011;21955;50.580;7.228;2022-12-07T04:23:56;19.58;;;11.30;;
35835;SDS011;21955;50.580;7.228;2022-12-07T04:26:30;20.10;;;11.43;;
35835;SDS011;21955;50.580;7.228;2022-12-07T04:28:57;20.77;;;11.53;;
35835;SDS011;21955;50.580;7.228;2022-12-07T04:31:25;19.92;;;11.45;;
35835;SDS011;21955;50.580;7.228;2022-12-07T04:33:52;20.33;;;12.13;;
35835;SDS011;21955;50.580;7.228;2022-12-07T04:36:19;21.35;;;12.07;;
35835;SDS011;21955;50.580;7.228;2022-12-07T04:38:48;20.70;;;12.30;;
35835;SDS011;21955;50.580;7.228;2022-12-07T04:41:18;20.67;;;12.40;;
35835;SDS011;21955;50.580;7.228;2022-12-07T04:43:51;22.83;;;12.60;;
35835;SDS011;21955;50.580;7.228;2022-12-07T04:46:18;20.97;;;13.03;;
35835;SDS011;21955;50.580;7.228;2022-12-07T04:48:45;22.15;;;13.02;;
35835;SDS011;21955;50.580;7.228;2022-12-07T04:51:13;25.58;;;13.02;;
35835;SDS011;21955;50.580;7.228;2022-12-07T04:53:40;25.45;;;13.60;;
35835;SDS011;21955;50.580;7.228;2022-12-07T04:56:07;25.67;;;13.80;;
35835;SDS011;21955;50.580;7.228;2022-12-07T04:58:35;24.50;;;13.68;;
35835;SDS011;21955;50.580;7.228;2022-12-07T05:01:02;24.05;;;13.65;;
35835;SDS011;21955;50.580;7.228;2022-12-07T05:03:29;24.83;;;13.65;;
35835;SDS011;21955;50.580;7.228;2022-12-07T05:05:57;23.40;;;12.70;;
35835;SDS011;21955;50.580;7.228;2022-12-07T05:08:24;24.00;;;13.00;;
35835;SDS011;21955;50.580;7.228;2022-12-07T05:10:51;22.52;;;12.90;;
35835;SDS011;21955;50.580;7.228;2022-12-07T05:13:18;22.92;;;13.07;;
35835;SDS011;21955;50.580;7.228;2022-12-07T05:15:47;26.25;;;14.02;;
35835;SDS011;21955;50.580;7.228;2022-12-07T05:18:14;26.15;;;15.05;;
35835;SDS011;21955;50.580;7.228;2022-12-07T05:20:42;30.75;;;14.98;;
35835;SDS011;21955;50.580;7.228;2022-12-07T05:23:10;29.02;;;15.20;;
35835;SDS011;21955;50.580;7.228;2022-12-07T05:25:37;27.48;;;14.65;;
35835;SDS011;21955;50.580;7.228;2022-12-07T05:28:04;27.08;;;14.80;;
35835;SDS011;21955;50.580;7.228;2022-12-07T05:30:33;24.30;;;14.43;;
35835;SDS011;21955;50.580;7.228;2022-12-07T05:33:02;27.15;;;15.02;;
35835;SDS011;21955;50.580;7.228;2022-12-07T05:35:30;25.58;;;14.25;;
35835;SDS011;21955;50.580;7.228;2022-12-07T05:37:57;24.80;;;13.60;;
35835;SDS011;21955;50.580;7.228;2022-12-07T05:40:24;25.63;;;14.23;;
35835;SDS011;21955;50.580;7.228;2022-12-07T05:42:51;26.85;;;14.32;;
35835;SDS011;21955;50.580;7.228;2022-12-07T05:45:18;28.75;;;14.25;;
35835;SDS011;21955;50.580;7.228;2022-12-07T05:47:45;28.10;;;14.40;;
35835;SDS011;21955;50.580;7.228;2022-12-07T05:50:14;25.65;;;14.27;;
35835;SDS011;21955;50.580;7.228;2022-12-07T05:52:41;28.27;;;14.55;;
35835;SDS011;21955;50.580;7.228;2022-12-07T05:55:08;28.70;;;14.13;;
35835;SDS011;21955;50.580;7.228;2022-12-07T05:57:35;25.63;;;14.25;;
35835;SDS011;21955;50.580;7.228;2022-12-07T06:00:03;27.38;;;14.52;;
35835;SDS011;21955;50.580;7.228;2022-12-07T06:02:29;26.10;;;14.02;;
35835;SDS011;21955;50.580;7.228;2022-12-07T06:04:56;25.90;;;14.47;;
35835;SDS011;21955;50.580;7.228;2022-12-07T06:07:25;26.02;;;14.13;;
35835;SDS011;21955;50.580;7.228;2022-12-07T06:09:52;26.13;;;14.20;;
35835;SDS011;21955;50.580;7.228;2022-12-07T06:12:19;26.40;;;14.90;;
35835;SDS011;21955;50.580;7.228;2022-12-07T06:15:00;28.10;;;14.75;;
35835;SDS011;21955;50.580;7.228;2022-12-07T06:17:27;28.92;;;14.98;;
35835;SDS011;21955;50.580;7.228;2022-12-07T06:19:54;26.03;;;13.67;;
35835;SDS011;21955;50.580;7.228;2022-12-07T06:22:21;25.23;;;13.27;;
35835;SDS011;21955;50.580;7.228;2022-12-07T06:24:50;23.77;;;12.95;;
35835;SDS011;21955;50.580;7.228;2022-12-07T06:27:17;24.73;;;12.52;;
35835;SDS011;21955;50.580;7.228;2022-12-07T06:29:44;22.80;;;12.18;;
35835;SDS011;21955;50.580;7.228;2022-12-07T06:32:11;25.48;;;12.50;;
35835;SDS011;21955;50.580;7.228;2022-12-07T06:34:38;22.88;;;12.13;;
35835;SDS011;21955;50.580;7.228;2022-12-07T06:37:05;23.93;;;12.80;;
35835;SDS011;21955;50.580;7.228;2022-12-07T06:39:32;25.58;;;12.82;;
35835;SDS011;21955;50.580;7.228;2022-12-07T06:42:01;24.67;;;13.05;;
35835;SDS011;21955;50.580;7.228;2022-12-07T06:44:28;25.35;;;12.57;;
35835;SDS011;21955;50.580;7.228;2022-12-07T06:46:55;24.42;;;12.20;;
35835;SDS011;21955;50.580;7.228;2022-12-07T06:49:23;24.17;;;12.07;;
35835;SDS011;21955;50.580;7.228;2022-12-07T06:51:51;22.95;;;12.30;;
35835;SDS011;21955;50.580;7.228;2022-12-07T06:54:18;27.90;;;12.88;;
35835;SDS011;21955;50.580;7.228;2022-12-07T06:56:45;23.77;;;12.27;;
35835;SDS011;21955;50.580;7.228;2022-12-07T06:59:13;25.30;;;12.47;;
35835;SDS011;21955;50.580;7.228;2022-12-07T07:01:41;21.92;;;11.85;;
35835;SDS011;21955;50.580;7.228;2022-12-07T07:04:08;28.83;;;14.77;;
35835;SDS011;21955;50.580;7.228;2022-12-07T07:06:35;27.13;;;12.88;;
35835;SDS011;21955;50.580;7.228;2022-12-07T07:09:02;22.30;;;11.23;;
35835;SDS011;21955;50.580;7.228;2022-12-07T07:11:29;18.95;;;10.45;;
35835;SDS011;21955;50.580;7.228;2022-12-07T07:13:56;18.93;;;10.10;;
35835;SDS011;21955;50.580;7.228;2022-12-07T07:16:28;22.40;;;10.05;;
35835;SDS011;21955;50.580;7.228;2022-12-07T07:18:56;22.20;;;11.07;;
35835;SDS011;21955;50.580;7.228;2022-12-07T07:21:23;21.90;;;11.05;;
35835;SDS011;21955;50.580;7.228;2022-12-07T07:23:50;20.43;;;11.33;;
35835;SDS011;21955;50.580;7.228;2022-12-07T07:26:18;22.75;;;11.00;;
35835;SDS011;21955;50.580;7.228;2022-12-07T07:28:45;22.65;;;11.90;;
35835;SDS011;21955;50.580;7.228;2022-12-07T07:31:12;28.88;;;13.23;;
35835;SDS011;21955;50.580;7.228;2022-12-07T07:33:40;35.45;;;15.32;;
35835;SDS011;21955;50.580;7.228;2022-12-07T07:36:08;35.40;;;15.70;;
35835;SDS011;21955;50.580;7.228;2022-12-07T07:38:35;31.60;;;14.70;;
35835;SDS011;21955;50.580;7.228;2022-12-07T07:41:02;32.60;;;14.30;;
35835;SDS011;21955;50.580;7.228;2022-12-07T07:43:29;29.80;;;13.63;;
35835;SDS011;21955;50.580;7.228;2022-12-07T07:45:56;28.35;;;13.60;;
35835;SDS011;21955;50.580;7.228;2022-12-07T07:48:23;27.45;;;11.82;;
35835;SDS011;21955;50.580;7.228;2022-12-07T07:50:52;24.73;;;11.75;;
35835;SDS011;21955;50.580;7.228;2022-12-07T07:53:19;18.25;;;9.68;;
35835;SDS011;21955;50.580;7.228;2022-12-07T07:55:52;22.80;;;9.88;;
35835;SDS011;21955;50.580;7.228;2022-12-07T07:58:19;16.58;;;8.68;;
35835;SDS011;21955;50.580;7.228;2022-12-07T08:00:48;21.50;;;9.25;;
35835;SDS011;21955;50.580;7.228;2022-12-07T08:03:15;22.53;;;9.77;;
35835;SDS011;21955;50.580;7.228;2022-12-07T08:05:42;18.42;;;8.50;;
35835;SDS011;21955;50.580;7.228;2022-12-07T08:08:11;15.02;;;8.20;;
35835;SDS011;21955;50.580;7.228;2022-12-07T08:10:38;22.08;;;13.43;;
35835;SDS011;21955;50.580;7.228;2022-12-07T08:13:06;18.42;;;8.60;;
35835;SDS011;21955;50.580;7.228;2022-12-07T08:15:40;18.35;;;8.20;;
35835;SDS011;21955;50.580;7.228;2022-12-07T08:18:07;18.33;;;8.97;;
35835;SDS011;21955;50.580;7.228;2022-12-07T08:20:35;15.50;;;8.50;;
35835;SDS011;21955;50.580;7.228;2022-12-07T08:23:02;17.45;;;8.40;;
35835;SDS011;21955;50.580;7.228;2022-12-07T08:25:31;19.03;;;8.93;;
35835;SDS011;21955;50.580;7.228;2022-12-07T08:27:59;15.45;;;8.85;;
35835;SDS011;21955;50.580;7.228;2022-12-07T08:30:26;18.70;;;9.00;;
35835;SDS011;21955;50.580;7.228;2022-12-07T08:32:53;16.73;;;8.27;;
35835;SDS011;21955;50.580;7.228;2022-12-07T08:35:20;15.73;;;8.48;;
35835;SDS011;21955;50.580;7.228;2022-12-07T08:37:48;17.90;;;8.77;;
35835;SDS011;21955;50.580;7.228;2022-12-07T08:40:15;17.48;;;8.63;;
35835;SDS011;21955;50.580;7.228;2022-12-07T08:42:47;17.00;;;8.50;;
35835;SDS011;21955;50.580;7.228;2022-12-07T08:45:15;18.60;;;9.93;;
35835;SDS011;21955;50.580;7.228;2022-12-07T08:47:43;17.70;;;8.82;;
35835;SDS011;21955;50.580;7.228;2022-12-07T08:50:11;18.93;;;8.87;;
35835;SDS011;21955;50.580;7.228;2022-12-07T08:52:39;16.55;;;8.40;;
35835;SDS011;21955;50.580;7.228;2022-12-07T08:55:09;16.63;;;8.15;;
35835;SDS011;21955;50.580;7.228;2022-12-07T08:57:38;15.75;;;8.57;;
35835;SDS011;21955;50.580;7.228;2022-12-07T09:00:10;17.63;;;9.02;;
35835;SDS011;21955;50.580;7.228;2022-12-07T09:02:37;16.80;;;8.82;;
35835;SDS011;21955;50.580;7.228;2022-12-07T09:05:04;15.57;;;8.43;;
35835;SDS011;21955;50.580;7.228;2022-12-07T09:07:32;18.10;;;8.75;;
35835;SDS011;21955;50.580;7.228;2022-12-07T09:09:59;14.93;;;7.90;;
35835;SDS011;21955;50.580;7.228;2022-12-07T09:12:27;17.90;;;8.10;;
35835;SDS011;21955;50.580;7.228;2022-12-07T09:14:54;14.93;;;7.43;;
35835;SDS011;21955;50.580;7.228;2022-12-07T09:17:22;14.25;;;6.95;;
35835;SDS011;21955;50.580;7.228;2022-12-07T09:19:49;15.50;;;7.22;;
35835;SDS011;21955;50.580;7.228;2022-12-07T09:22:16;13.52;;;6.82;;
35835;SDS011;21955;50.580;7.228;2022-12-07T09:24:43;25.90;;;12.43;;
35835;SDS011;21955;50.580;7.228;2022-12-07T09:27:11;13.95;;;6.85;;
35835;SDS011;21955;50.580;7.228;2022-12-07T09:29:38;16.73;;;7.32;;
35835;SDS011;21955;50.580;7.228;2022-12-07T09:32:06;14.60;;;7.15;;
35835;SDS011;21955;50.580;7.228;2022-12-07T09:34:34;14.68;;;6.22;;
35835;SDS011;21955;50.580;7.228;2022-12-07T09:37:02;14.50;;;6.25;;
35835;SDS011;21955;50.580;7.228;2022-12-07T09:39:29;13.15;;;6.53;;
35835;SDS011;21955;50.580;7.228;2022-12-07T09:41:58;14.82;;;6.15;;
35835;SDS011;21955;50.580;7.228;2022-12-07T09:44:26;11.93;;;5.70;;
35835;SDS011;21955;50.580;7.228;2022-12-07T09:46:55;12.65;;;6.13;;
35835;SDS011;21955;50.580;7.228;2022-12-07T09:49:24;12.13;;;5.88;;
35835;SDS011;21955;50.580;7.228;2022-12-07T09:52:00;11.63;;;5.35;;
35835;SDS011;21955;50.580;7.228;2022-12-07T09:54:28;11.32;;;5.68;;
35835;SDS011;21955;50.580;7.228;2022-12-07T09:56:56;13.63;;;6.18;;
35835;SDS011;21955;50.580;7.228;2022-12-07T09:59:23;13.68;;;6.05;;
35835;SDS011;21955;50.580;7.228;2022-12-07T10:01:50;11.97;;;5.20;;
35835;SDS011;21955;50.580;7.228;2022-12-07T10:04:18;10.90;;;4.72;;
35835;SDS011;21955;50.580;7.228;2022-12-07T10:06:46;12.60;;;4.90;;
35835;SDS011;21955;50.580;7.228;2022-12-07T10:09:15;13.57;;;4.80;;
35835;SDS011;21955;50.580;7.228;2022-12-07T10:11:59;10.82;;;4.68;;
35835;SDS011;21955;50.580;7.228;2022-12-07T10:14:27;11.82;;;4.88;;
35835;SDS011;21955;50.580;7.228;2022-12-07T10:16:54;9.10;;;4.00;;
35835;SDS011;21955;50.580;7.228;2022-12-07T10:19:24;8.85;;;3.97;;
35835;SDS011;21955;50.580;7.228;2022-12-07T10:22:07;10.43;;;4.53;;
35835;SDS011;21955;50.580;7.228;2022-12-07T10:24:37;10.82;;;4.25;;
35835;SDS011;21955;50.580;7.228;2022-12-07T10:27:10;13.88;;;5.90;;
35835;SDS011;21955;50.580;7.228;2022-12-07T10:29:46;7.63;;;3.63;;
35835;SDS011;21955;50.580;7.228;2022-12-07T10:32:25;8.93;;;3.80;;
35835;SDS011;21955;50.580;7.228;2022-12-07T10:34:56;7.53;;;3.50;;
35835;SDS011;21955;50.580;7.228;2022-12-07T10:37:39;7.53;;;3.30;;
35835;SDS011;21955;50.580;7.228;2022-12-07T10:40:19;8.25;;;3.40;;
35835;SDS011;21955;50.580;7.228;2022-12-07T10:42:59;7.47;;;3.30;;
35835;SDS011;21955;50.580;7.228;2022-12-07T10:45:26;7.30;;;3.13;;
35835;SDS011;21955;50.580;7.228;2022-12-07T10:47:55;7.40;;;3.28;;
35835;SDS011;21955;50.580;7.228;2022-12-07T10:50:29;8.40;;;3.40;;
35835;SDS011;21955;50.580;7.228;2022-12-07T10:55:59;11.85;;;3.78;;
35835;SDS011;21955;50.580;7.228;2022-12-07T10:58:40;9.07;;;3.10;;
35835;SDS011;21955;50.580;7.228;2022-12-07T11:01:12;7.50;;;2.80;;
35835;SDS011;21955;50.580;7.228;2022-12-07T11:03:43;6.30;;;2.70;;
35835;SDS011;21955;50.580;7.228;2022-12-07T11:06:18;6.82;;;2.95;;
35835;SDS011;21955;50.580;7.228;2022-12-07T11:08:54;9.98;;;3.92;;
35835;SDS011;21955;50.580;7.228;2022-12-07T11:11:32;8.75;;;3.70;;
35835;SDS011;21955;50.580;7.228;2022-12-07T11:14:02;9.75;;;4.30;;
35835;SDS011;21955;50.580;7.228;2022-12-07T11:16:37;8.75;;;3.80;;
35835;SDS011;21955;50.580;7.228;2022-12-07T11:19:15;8.65;;;3.92;;
35835;SDS011;21955;50.580;7.228;2022-12-07T11:21:45;8.27;;;4.10;;
35835;SDS011;21955;50.580;7.228;2022-12-07T11:24:15;6.82;;;3.00;;
35835;SDS011;21955;50.580;7.228;2022-12-07T11:26:51;7.28;;;3.20;;
35835;SDS011;21955;50.580;7.228;2022-12-07T11:29:28;6.53;;;2.63;;
35835;SDS011;21955;50.580;7.228;2022-12-07T11:32:03;7.55;;;3.22;;
35835;SDS011;21955;50.580;7.228;2022-12-07T11:34:34;6.80;;;2.60;;
35835;SDS011;21955;50.580;7.228;2022-12-07T11:37:05;10.68;;;4.15;;
35835;SDS011;21955;50.580;7.228;2022-12-07T11:39:35;7.37;;;2.47;;
35835;SDS011;21955;50.580;7.228;2022-12-07T11:42:06;9.90;;;3.25;;
35835;SDS011;21955;50.580;7.228;2022-12-07T11:44:34;7.65;;;2.97;;
35835;SDS011;21955;50.580;7.228;2022-12-07T11:47:05;5.93;;;2.15;;
35835;SDS011;21955;50.580;7.228;2022-12-07T11:49:42;9.05;;;2.47;;
35835;SDS011;21955;50.580;7.228;2022-12-07T11:52:32;9.93;;;2.92;;
35835;SDS011;21955;50.580;7.228;2022-12-07T11:55:21;7.13;;;2.25;;
35835;SDS011;21955;50.580;7.228;2022-12-07T11:57:54;8.05;;;3.00;;
35835;SDS011;21955;50.580;7.228;2022-12-07T12:00:24;7.68;;;2.83;;
35835;SDS011;21955;50.580;7.228;2022-12-07T12:02:52;9.68;;;2.85;;
35835;SDS011;21955;50.580;7.228;2022-12-07T12:05:23;7.53;;;2.60;;
35835;SDS011;21955;50.580;7.228;2022-12-07T12:07:52;4.15;;;2.10;;
35835;SDS011;21955;50.580;7.228;2022-12-07T12:10:24;6.28;;;2.20;;
35835;SDS011;21955;50.580;7.228;2022-12-07T12:13:00;4.75;;;2.53;;
35835;SDS011;21955;50.580;7.228;2022-12-07T12:15:33;7.72;;;2.60;;
35835;SDS011;21955;50.580;7.228;2022-12-07T12:18:10;6.60;;;2.50;;
35835;SDS011;21955;50.580;7.228;2022-12-07T12:20:40;6.13;;;2.40;;
35835;SDS011;21955;50.580;7.228;2022-12-07T12:23:10;5.15;;;2.20;;
35835;SDS011;21955;50.580;7.228;2022-12-07T12:25:41;5.82;;;2.28;;
35835;SDS011;21955;50.580;7.228;2022-12-07T12:28:19;5.47;;;2.53;;
35835;SDS011;21955;50.580;7.228;2022-12-07T12:33:30;7.13;;;2.42;;
35835;SDS011;21955;50.580;7.228;2022-12-07T12:38:48;9.93;;;2.33;;
35835;SDS011;21955;50.580;7.228;2022-12-07T12:43:58;8.32;;;2.28;;
35835;SDS011;21955;50.580;7.228;2022-12-07T12:49:23;5.47;;;2.13;;
35835;SDS011;21955;50.580;7.228;2022-12-07T12:51:58;9.60;;;2.60;;
35835;SDS011;21955;50.580;7.228;2022-12-07T12:54:27;10.67;;;2.63;;
35835;SDS011;21955;50.580;7.228;2022-12-07T12:56:55;8.25;;;2.63;;
35835;SDS011;21955;50.580;7.228;2022-12-07T12:59:25;9.85;;;3.45;;
35835;SDS011;21955;50.580;7.228;2022-12-07T13:01:58;7.47;;;3.03;;
35835;SDS011;21955;50.580;7.228;2022-12-07T13:04:37;10.77;;;2.78;;
35835;SDS011;21955;50.580;7.228;2022-12-07T13:07:09;8.18;;;2.88;;
35835;SDS011;21955;50.580;7.228;2022-12-07T13:09:37;7.33;;;2.77;;
35835;SDS011;21955;50.580;7.228;2022-12-07T13:12:11;11.25;;;3.05;;
35835;SDS011;21955;50.580;7.228;2022-12-07T13:20:08;10.50;;;3.05;;
35835;SDS011;21955;50.580;7.228;2022-12-07T13:25:19;8.53;;;3.07;;
35835;SDS011;21955;50.580;7.228;2022-12-07T13:27:48;9.52;;;3.00;;
35835;SDS011;21955;50.580;7.228;2022-12-07T13:30:19;9.10;;;3.00;;
35835;SDS011;21955;50.580;7.228;2022-12-07T13:32:50;14.02;;;5.25;;
35835;SDS011;21955;50.580;7.228;2022-12-07T13:35:30;14.90;;;5.50;;
35835;SDS011;21955;50.580;7.228;2022-12-07T13:37:57;11.18;;;3.67;;
35835;SDS011;21955;50.580;7.228;2022-12-07T13:40:25;7.75;;;3.30;;
35835;SDS011;21955;50.580;7.228;2022-12-07T13:42:58;10.77;;;4.20;;
35835;SDS011;21955;50.580;7.228;2022-12-07T13:45:26;12.20;;;4.15;;
35835;SDS011;21955;50.580;7.228;2022-12-07T13:48:08;11.45;;;4.13;;
35835;SDS011;21955;50.580;7.228;2022-12-07T13:50:39;8.35;;;3.08;;
35835;SDS011;21955;50.580;7.228;2022-12-07T13:53:10;6.93;;;3.03;;
35835;SDS011;21955;50.580;7.228;2022-12-07T13:55:38;9.13;;;3.28;;
35835;SDS011;21955;50.580;7.228;2022-12-07T13:58:10;11.98;;;4.10;;
35835;SDS011;21955;50.580;7.228;2022-12-07T14:00:39;11.93;;;4.50;;
35835;SDS011;21955;50.580;7.228;2022-12-07T14:03:22;10.20;;;4.28;;
35835;SDS011;21955;50.580;7.228;2022-12-07T14:06:04;8.82;;;3.53;;
35835;SDS011;21955;50.580;7.228;2022-12-07T14:08:32;10.65;;;4.05;;
35835;SDS011;21955;50.580;7.228;2022-12-07T14:11:00;7.07;;;3.90;;
35835;SDS011;21955;50.580;7.228;2022-12-07T14:13:28;9.30;;;3.55;;
35835;SDS011;21955;50.580;7.228;2022-12-07T14:15:56;10.20;;;3.50;;
35835;SDS011;21955;50.580;7.228;2022-12-07T14:18:27;7.97;;;3.20;;
35835;SDS011;21955;50.580;7.228;2022-12-07T14:21:06;9.90;;;4.28;;
35835;SDS011;21955;50.580;7.228;2022-12-07T14:23:33;10.57;;;4.32;;
35835;SDS011;21955;50.580;7.228;2022-12-07T14:26:05;8.37;;;3.70;;
35835;SDS011;21955;50.580;7.228;2022-12-07T14:28:35;9.25;;;3.60;;
35835;SDS011;21955;50.580;7.228;2022-12-07T14:31:02;9.32;;;3.80;;
35835;SDS011;21955;50.580;7.228;2022-12-07T14:33:30;9.38;;;3.60;;
35835;SDS011;21955;50.580;7.228;2022-12-07T14:35:57;7.35;;;3.20;;
35835;SDS011;21955;50.580;7.228;2022-12-07T14:38:25;10.73;;;3.95;;
35835;SDS011;21955;50.580;7.228;2022-12-07T14:40:53;9.85;;;3.92;;
35835;SDS011;21955;50.580;7.228;2022-12-07T14:43:40;10.47;;;3.70;;
35835;SDS011;21955;50.580;7.228;2022-12-07T14:46:08;8.68;;;3.30;;
35835;SDS011;21955;50.580;7.228;2022-12-07T14:48:35;10.10;;;3.25;;
35835;SDS011;21955;50.580;7.228;2022-12-07T14:51:02;8.57;;;3.28;;
35835;SDS011;21955;50.580;7.228;2022-12-07T14:53:33;8.00;;;2.78;;
35835;SDS011;21955;50.580;7.228;2022-12-07T14:56:01;5.53;;;2.58;;
35835;SDS011;21955;50.580;7.228;2022-12-07T14:58:30;8.93;;;3.05;;
35835;SDS011;21955;50.580;7.228;2022-12-07T15:01:00;9.52;;;2.85;;
35835;SDS011;21955;50.580;7.228;2022-12-07T15:03:27;10.88;;;3.20;;
35835;SDS011;21955;50.580;7.228;2022-12-07T15:05:55;8.95;;;2.90;;